Time;durP1;ratioP1;P1;durP2;ratioP2;P2;SDS_P1;SDS_P2;PMS_P1;PMS_P2;Temp;Humidity;BMP_temperature;BMP_pressure;BME280_temperature;BME280_humidity;BME280_pressure;Samples;Min_cycle;Max_cycle;Signal;HPM_P1;HPM_P2
2021/11/18 00:02:02;;;;;;;0.57;0.50;;;6.30;92.80;;;;;;4822363;29;20141;-84
2021/11/18 00:04:29;;;;;;;1.70;0.82;;;6.30;92.80;;;;;;4824580;29;20042;-80
2021/11/18 00:07:06;;;;;;;1.08;0.50;;;6.30;92.80;;;;;;4822128;29;20050;-85
2021/11/18 00:09:31;;;;;;;0.50;0.32;;;6.30;92.70;;;;;;4841511;29;20071;-81
2021/11/18 00:12:00;;;;;;;0.77;0.50;;;6.30;92.70;;;;;;4881156;29;20024;-82
2021/11/18 00:14:25;;;;;;;1.05;0.60;;;6.30;92.70;;;;;;4880713;29;20499;-78
2021/11/18 00:16:51;;;;;;;0.43;0.40;;;6.10;92.70;;;;;;4899446;29;20060;-80
2021/11/18 00:19:17;;;;;;;1.00;0.60;;;6.20;92.80;;;;;;4896483;29;20088;-79
2021/11/18 00:21:44;;;;;;;0.57;0.55;;;6.20;92.80;;;;;;4895959;29;20095;-79
2021/11/18 00:24:12;;;;;;;1.02;0.50;;;6.10;92.90;;;;;;4895862;29;20053;-80
2021/11/18 00:26:54;;;;;;;1.38;0.70;;;6.00;93.10;;;;;;4879587;29;20452;-79
2021/11/18 00:32:59;;;;;;;0.38;0.32;;;5.90;93.00;;;;;;4821317;29;20085;-80
2021/11/18 00:35:28;;;;;;;0.75;0.52;;;5.90;93.00;;;;;;4823178;29;20062;-79
2021/11/18 00:37:55;;;;;;;0.57;0.50;;;5.80;93.00;;;;;;4810453;29;20554;-78
2021/11/18 00:40:26;;;;;;;1.88;0.60;;;5.90;93.10;;;;;;4824481;29;20482;-79
2021/11/18 00:42:52;;;;;;;0.70;0.50;;;5.80;93.10;;;;;;4821321;29;20052;-79
2021/11/18 00:45:21;;;;;;;0.65;0.47;;;5.80;93.10;;;;;;4806553;29;20062;-78
2021/11/18 00:47:49;;;;;;;0.70;0.50;;;5.80;93.00;;;;;;4820937;29;20177;-78
2021/11/18 00:50:17;;;;;;;0.98;0.50;;;5.70;93.10;;;;;;4821986;29;20061;-78
2021/11/18 00:52:43;;;;;;;0.70;0.60;;;5.70;93.10;;;;;;4821130;29;20489;-78
2021/11/18 00:55:13;;;;;;;1.52;0.80;;;5.70;93.10;;;;;;4821764;29;20035;-80
2021/11/18 00:57:44;;;;;;;1.15;0.75;;;5.70;93.10;;;;;;4804332;29;20031;-82
2021/11/18 01:00:16;;;;;;;1.52;0.75;;;5.70;93.10;;;;;;4798776;29;20036;-79
2021/11/18 01:02:42;;;;;;;1.70;0.80;;;5.70;93.10;;;;;;4798947;29;20051;-80
2021/11/18 01:05:08;;;;;;;2.65;1.05;;;5.80;93.10;;;;;;4799616;29;20051;-79
2021/11/18 01:07:38;;;;;;;1.42;0.75;;;5.90;93.10;;;;;;4781202;29;20093;-80
2021/11/18 01:10:09;;;;;;;2.63;0.82;;;5.90;93.00;;;;;;4801932;29;20038;-81
2021/11/18 01:12:36;;;;;;;1.65;0.90;;;5.90;92.90;;;;;;4822437;29;21409;-81
2021/11/18 01:15:05;;;;;;;3.83;1.05;;;5.80;92.90;;;;;;4820954;29;20570;-80
2021/11/18 01:17:31;;;;;;;1.48;0.80;;;5.90;92.90;;;;;;4820500;29;20042;-78
2021/11/18 01:20:00;;;;;;;2.80;0.93;;;5.90;92.90;;;;;;4822367;29;20139;-79
2021/11/18 01:22:26;;;;;;;2.33;0.80;;;5.80;92.90;;;;;;4820533;29;20054;-79
2021/11/18 01:24:52;;;;;;;1.63;0.55;;;5.90;92.90;;;;;;4841187;29;20496;-78
2021/11/18 01:31:07;;;;;;;1.20;0.70;;;5.70;92.90;;;;;;4840882;29;20054;-79
2021/11/18 01:33:41;;;;;;;0.77;0.50;;;5.80;93.20;;;;;;4821913;29;20554;-79
2021/11/18 01:36:07;;;;;;;0.85;0.47;;;5.70;93.00;;;;;;4820896;29;20054;-80
2021/11/18 01:38:35;;;;;;;0.57;0.40;;;5.70;93.00;;;;;;4854154;29;20061;-79
2021/11/18 01:41:07;;;;;;;0.98;0.50;;;5.60;93.00;;;;;;4857256;29;20045;-79
2021/11/18 01:43:37;;;;;;;;;;;5.60;93.10;;;;;;4872612;29;20559;-77
2021/11/18 01:46:07;;;;;;;1.77;0.80;;;5.50;93.10;;;;;;4872224;29;19908;-78
2021/11/18 01:48:33;;;;;;;1.77;0.73;;;5.60;93.10;;;;;;4857113;29;20109;-78
2021/11/18 01:50:59;;;;;;;1.23;0.60;;;5.40;93.10;;;;;;4872834;29;20101;-80
2021/11/18 01:53:36;;;;;;;1.10;0.70;;;5.60;93.10;;;;;;4872334;29;20049;-79
2021/11/18 01:56:05;;;;;;;1.05;0.70;;;5.50;93.20;;;;;;4871601;29;20472;-79
2021/11/18 01:58:31;;;;;;;2.80;0.80;;;5.60;93.20;;;;;;4872389;29;20056;-80
2021/11/18 02:00:59;;;;;;;1.23;0.80;;;5.50;93.20;;;;;;4857020;29;20144;-79
2021/11/18 02:03:25;;;;;;;1.52;0.80;;;5.60;93.20;;;;;;4872173;29;20077;-78
2021/11/18 02:05:56;;;;;;;2.60;0.80;;;5.70;93.10;;;;;;4880296;29;20373;-81
2021/11/18 02:08:23;;;;;;;0.90;0.68;;;5.70;93.10;;;;;;4879591;29;20037;-79
2021/11/18 02:10:54;;;;;;;1.42;0.85;;;5.70;93.00;;;;;;4877339;29;20045;-81
2021/11/18 02:13:22;;;;;;;1.52;0.90;;;5.60;93.00;;;;;;4893917;29;20069;-79
2021/11/18 02:22:12;;;;;;;0.70;0.65;;;5.70;93.10;;;;;;4838824;29;20049;-79
2021/11/18 02:24:42;;;;;;;0.73;0.57;;;5.70;93.00;;;;;;4838441;29;20484;-80
2021/11/18 02:27:13;;;;;;;0.63;0.50;;;5.70;93.00;;;;;;4808272;29;20034;-80
2021/11/18 02:29:45;;;;;;;2.13;0.98;;;5.70;93.00;;;;;;4838479;29;20038;-79
2021/11/18 02:32:17;;;;;;;0.63;0.50;;;5.70;93.00;;;;;;4838465;29;20046;-81
2021/11/18 02:34:58;;;;;;;2.75;1.08;;;5.70;93.00;;;;;;4822019;29;20034;-80
2021/11/18 02:37:24;;;;;;;1.10;0.77;;;5.70;93.00;;;;;;4823463;29;20046;-79
2021/11/18 02:39:51;;;;;;;2.00;0.90;;;5.50;93.00;;;;;;4839956;29;20151;-79
2021/11/18 02:42:22;;;;;;;1.10;0.75;;;5.60;93.00;;;;;;4838044;29;20053;-82
2021/11/18 02:44:54;;;;;;;0.70;0.60;;;5.70;93.00;;;;;;4837889;29;20046;-80
2021/11/18 02:47:19;;;;;;;;;;;5.70;93.00;;;;;;4824637;29;20133;-79
2021/11/18 02:49:49;;;;;;;1.20;0.65;;;5.60;93.00;;;;;;4851201;29;19966;-78
2021/11/18 02:52:20;;;;;;;1.33;0.90;;;5.60;93.00;;;;;;4858550;29;20046;-78
2021/11/18 02:54:47;;;;;;;1.08;0.60;;;5.60;93.10;;;;;;4861459;29;20429;-78
2021/11/18 02:57:14;;;;;;;0.50;0.43;;;5.50;93.10;;;;;;4897024;29;20071;-78
2021/11/18 02:59:40;;;;;;;1.33;0.68;;;5.70;93.00;;;;;;4896065;29;20463;-78
2021/11/18 03:02:08;;;;;;;1.20;0.90;;;5.70;93.00;;;;;;4893726;29;20110;-78
2021/11/18 03:04:35;;;;;;;1.13;0.73;;;5.80;93.00;;;;;;4897998;29;20097;-78
2021/11/18 03:07:02;;;;;;;1.50;0.77;;;5.90;93.00;;;;;;4896560;29;20044;-78
2021/11/18 03:09:29;;;;;;;1.92;0.98;;;5.90;93.00;;;;;;4877285;29;20080;-78
2021/11/18 03:11:55;;;;;;;3.75;1.25;;;6.00;92.90;;;;;;4892374;29;20053;-78
2021/11/18 03:14:22;;;;;;;3.83;1.15;;;6.00;92.90;;;;;;4877352;29;20125;-78
2021/11/18 03:16:48;;;;;;;2.13;0.90;;;6.10;92.80;;;;;;4893637;29;20052;-78
2021/11/18 03:19:14;;;;;;;1.08;0.80;;;6.10;92.80;;;;;;4892700;29;20037;-78
2021/11/18 03:21:41;;;;;;;1.20;0.68;;;6.10;92.80;;;;;;4882628;29;20399;-78
2021/11/18 03:24:07;;;;;;;1.95;0.90;;;6.10;92.70;;;;;;4896437;29;20029;-78
2021/11/18 03:26:34;;;;;;;1.15;0.73;;;6.20;92.70;;;;;;4881983;29;20034;-78
2021/11/18 03:29:02;;;;;;;1.80;0.98;;;6.20;92.80;;;;;;4895959;29;20048;-78
2021/11/18 03:31:28;;;;;;;2.60;0.95;;;6.20;92.80;;;;;;4880526;29;20353;-78
2021/11/18 03:33:58;;;;;;;0.73;0.65;;;6.20;92.80;;;;;;4899104;29;20140;-78
2021/11/18 03:36:26;;;;;;;1.95;0.90;;;6.30;92.80;;;;;;4885401;29;20476;-78
2021/11/18 03:38:54;;;;;;;2.03;0.80;;;6.30;92.80;;;;;;4900897;29;20045;-78
2021/11/18 03:41:21;;;;;;;3.70;1.00;;;6.30;92.80;;;;;;4898904;29;20049;-78
2021/11/18 03:43:52;;;;;;;1.95;1.10;;;6.20;92.70;;;;;;4897516;29;20072;-78
2021/11/18 03:46:21;;;;;;;3.22;1.00;;;6.30;93.10;;;;;;4896968;29;20721;-78
2021/11/18 03:48:47;;;;;;;1.73;0.80;;;6.30;92.80;;;;;;4899860;29;20041;-78
2021/11/18 03:51:13;;;;;;;1.45;0.68;;;6.40;92.80;;;;;;4883523;29;20044;-78
2021/11/18 03:53:40;;;;;;;1.08;0.80;;;6.50;92.80;;;;;;4898213;29;20041;-78
2021/11/18 03:56:09;;;;;;;3.58;0.95;;;6.50;92.70;;;;;;4898568;29;20045;-78
2021/11/18 03:58:35;;;;;;;1.27;0.80;;;6.50;92.70;;;;;;4898509;29;20041;-78
2021/11/18 04:01:02;;;;;;;2.65;1.00;;;6.50;92.70;;;;;;4899728;29;20162;-78
2021/11/18 04:03:28;;;;;;;1.13;0.93;;;6.50;92.70;;;;;;4900010;29;20045;-78
2021/11/18 04:05:55;;;;;;;2.28;1.00;;;6.50;92.80;;;;;;4881868;29;20061;-78
2021/11/18 04:08:21;;;;;;;2.03;0.93;;;6.60;92.80;;;;;;4900380;29;20033;-78
2021/11/18 04:10:48;;;;;;;1.48;0.80;;;6.70;92.80;;;;;;4883308;29;20096;-79
2021/11/18 04:13:14;;;;;;;1.55;1.10;;;6.60;92.70;;;;;;4899695;29;20404;-78
2021/11/18 04:15:42;;;;;;;1.38;1.02;;;6.60;92.70;;;;;;4899962;29;20041;-78
2021/11/18 04:18:07;;;;;;;1.90;1.13;;;6.70;92.70;;;;;;4899026;29;20042;-78
2021/11/18 04:20:34;;;;;;;1.55;1.08;;;6.70;92.70;;;;;;4899224;29;20100;-78
2021/11/18 04:23:02;;;;;;;1.55;1.00;;;6.70;92.70;;;;;;4899890;29;20068;-78
2021/11/18 04:25:33;;;;;;;2.92;1.02;;;6.70;92.70;;;;;;4899685;29;20047;-78
2021/11/18 04:27:59;;;;;;;2.20;1.05;;;6.80;92.70;;;;;;4882623;29;20037;-78
2021/11/18 04:30:34;;;;;;;2.85;0.90;;;6.80;92.70;;;;;;4882421;29;20131;-78
2021/11/18 04:33:00;;;;;;;1.55;0.80;;;6.80;92.70;;;;;;4883915;29;20149;-78
2021/11/18 04:35:26;;;;;;;3.17;0.90;;;6.80;92.70;;;;;;4898195;29;20041;-78
2021/11/18 04:37:52;;;;;;;4.82;1.10;;;6.80;92.70;;;;;;4896284;29;20047;-78
2021/11/18 04:40:18;;;;;;;4.53;1.30;;;6.90;92.70;;;;;;4895193;29;20170;-78
2021/11/18 04:42:45;;;;;;;2.53;1.17;;;6.80;92.70;;;;;;4879091;29;20041;-78
2021/11/18 04:45:15;;;;;;;2.28;1.10;;;6.80;92.70;;;;;;4900396;29;20039;-78
2021/11/18 04:47:41;;;;;;;2.33;1.13;;;6.90;92.70;;;;;;4898335;29;20127;-78
2021/11/18 04:50:08;;;;;;;1.60;0.93;;;6.90;92.60;;;;;;4880156;29;20475;-78
2021/11/18 04:52:34;;;;;;;1.52;1.20;;;6.80;92.60;;;;;;4881505;29;20475;-78
2021/11/18 04:55:00;;;;;;;1.38;1.00;;;6.90;92.70;;;;;;4898550;29;20095;-78
2021/11/18 04:57:28;;;;;;;2.13;0.95;;;6.90;92.70;;;;;;4899052;29;20483;-78
2021/11/18 04:59:55;;;;;;;3.90;1.23;;;7.10;92.70;;;;;;4881889;29;20433;-78
2021/11/18 05:02:22;;;;;;;4.47;1.17;;;7.00;92.70;;;;;;4899925;29;20115;-78
2021/11/18 05:04:49;;;;;;;2.45;1.15;;;7.00;92.70;;;;;;4896272;29;20501;-78
2021/11/18 05:07:17;;;;;;;1.27;1.00;;;7.00;92.70;;;;;;4898955;29;20029;-78
2021/11/18 05:09:43;;;;;;;2.72;1.20;;;6.90;92.60;;;;;;4882232;29;20445;-78
2021/11/18 05:12:09;;;;;;;2.08;0.98;;;7.00;92.70;;;;;;4899838;29;20037;-78
2021/11/18 05:14:35;;;;;;;3.40;1.15;;;7.00;92.70;;;;;;4882368;29;20469;-78
2021/11/18 05:17:01;;;;;;;2.22;1.10;;;7.00;92.70;;;;;;4882651;29;20033;-78
2021/11/18 05:19:27;;;;;;;2.47;1.10;;;7.10;92.80;;;;;;4896741;29;20608;-78
2021/11/18 05:21:53;;;;;;;2.13;1.17;;;7.10;92.80;;;;;;4896872;29;20065;-78
2021/11/18 05:24:20;;;;;;;1.92;1.20;;;7.00;92.70;;;;;;4897645;29;20032;-78
2021/11/18 05:26:46;;;;;;;2.67;1.35;;;7.00;92.70;;;;;;4882192;29;20451;-78
2021/11/18 05:29:12;;;;;;;3.80;1.27;;;7.00;92.70;;;;;;4883493;29;20036;-78
2021/11/18 05:31:38;;;;;;;4.85;1.45;;;7.00;92.70;;;;;;4883652;29;20132;-77
2021/11/18 05:34:04;;;;;;;4.25;1.60;;;7.00;92.70;;;;;;4881420;29;20045;-77
2021/11/18 05:36:29;;;;;;;2.65;1.30;;;7.00;92.70;;;;;;4897970;29;20408;-78
2021/11/18 05:38:55;;;;;;;3.88;1.60;;;7.10;92.70;;;;;;4885263;29;20041;-78
2021/11/18 05:41:22;;;;;;;5.30;1.70;;;7.10;92.70;;;;;;4900597;29;20048;-78
2021/11/18 05:43:48;;;;;;;3.13;1.45;;;7.10;92.70;;;;;;4904490;29;20049;-78
2021/11/18 05:46:17;;;;;;;2.90;1.60;;;7.00;92.70;;;;;;4911370;29;20044;-78
2021/11/18 05:48:43;;;;;;;4.97;1.63;;;7.20;92.70;;;;;;4906249;29;20037;-78
2021/11/18 05:51:12;;;;;;;2.95;1.63;;;7.10;92.70;;;;;;4907275;29;20049;-78
2021/11/18 05:53:41;;;;;;;3.40;1.38;;;7.10;92.60;;;;;;4910942;29;20044;-78
2021/11/18 05:56:11;;;;;;;1.95;1.20;;;7.20;92.70;;;;;;4910687;29;20045;-78
2021/11/18 05:58:39;;;;;;;2.20;1.25;;;7.20;92.70;;;;;;4908610;29;20056;-78
2021/11/18 06:01:06;;;;;;;2.45;1.20;;;7.20;92.70;;;;;;4909856;29;20533;-78
2021/11/18 06:03:32;;;;;;;4.57;1.33;;;7.20;92.70;;;;;;4913737;29;20104;-79
2021/11/18 06:05:57;;;;;;;3.42;1.30;;;7.20;92.70;;;;;;4893839;29;20037;-79
2021/11/18 06:08:23;;;;;;;3.38;1.23;;;7.30;92.70;;;;;;4909879;29;20039;-79
2021/11/18 06:10:50;;;;;;;2.47;1.15;;;7.20;92.70;;;;;;4914131;29;20872;-79
2021/11/18 06:13:17;;;;;;;3.47;1.13;;;7.20;92.70;;;;;;4890925;29;20444;-80
2021/11/18 06:15:43;;;;;;;3.40;1.15;;;7.30;92.70;;;;;;4912476;29;20082;-79
2021/11/18 06:18:09;;;;;;;3.22;1.27;;;7.30;92.70;;;;;;4908914;29;20049;-79
2021/11/18 06:20:35;;;;;;;3.95;1.20;;;7.30;92.70;;;;;;4897972;29;20136;-78
2021/11/18 06:23:02;;;;;;;3.15;1.20;;;7.30;92.70;;;;;;4911148;29;20507;-80
2021/11/18 06:25:30;;;;;;;3.58;1.30;;;7.30;92.70;;;;;;4896973;29;20045;-78
2021/11/18 06:27:56;;;;;;;1.70;0.98;;;7.40;92.80;;;;;;4910667;29;20049;-78
2021/11/18 06:30:30;;;;;;;3.42;1.20;;;7.30;92.70;;;;;;4913196;29;20502;-78
2021/11/18 06:32:56;;;;;;;3.22;1.00;;;7.30;92.70;;;;;;4894764;29;20552;-78
2021/11/18 06:35:22;;;;;;;2.53;1.00;;;7.30;92.70;;;;;;4895872;29;20051;-79
2021/11/18 06:37:49;;;;;;;1.10;0.80;;;7.30;92.70;;;;;;4895834;29;20097;-79
2021/11/18 06:40:16;;;;;;;1.40;0.82;;;7.40;92.80;;;;;;4912844;29;20040;-78
2021/11/18 06:42:44;;;;;;;1.85;1.20;;;7.40;92.80;;;;;;4912585;29;20025;-79
2021/11/18 06:45:13;;;;;;;2.70;1.10;;;7.30;92.80;;;;;;4913664;29;20096;-79
2021/11/18 06:47:38;;;;;;;2.55;1.15;;;7.40;92.80;;;;;;4908826;29;20041;-79
2021/11/18 06:50:05;;;;;;;2.72;1.20;;;7.30;92.80;;;;;;4891789;29;20044;-79
2021/11/18 06:52:31;;;;;;;3.70;1.33;;;7.30;92.80;;;;;;4893011;29;20048;-80
2021/11/18 06:54:56;;;;;;;4.68;1.35;;;7.40;92.80;;;;;;4907449;29;20038;-78
2021/11/18 06:57:23;;;;;;;2.35;1.10;;;7.40;92.80;;;;;;4913436;29;20060;-78
2021/11/18 06:59:49;;;;;;;3.60;1.35;;;7.40;92.80;;;;;;4915732;29;20037;-78
2021/11/18 07:02:16;;;;;;;2.20;1.13;;;7.40;92.80;;;;;;4911200;29;20924;-78
2021/11/18 07:04:45;;;;;;;2.75;1.02;;;7.40;92.80;;;;;;4907586;29;20125;-78
2021/11/18 07:07:11;;;;;;;3.55;1.55;;;7.40;92.80;;;;;;4902201;29;20060;-78
2021/11/18 07:09:38;;;;;;;3.47;1.40;;;7.30;92.80;;;;;;4901502;29;20036;-78
2021/11/18 07:12:07;;;;;;;4.53;1.60;;;7.30;92.80;;;;;;4898929;29;20045;-78
2021/11/18 07:14:34;;;;;;;2.47;1.33;;;7.40;92.90;;;;;;4882512;29;20041;-78
2021/11/18 07:17:02;;;;;;;3.80;1.67;;;7.40;92.90;;;;;;4886003;29;20043;-79
2021/11/18 07:19:27;;;;;;;3.80;1.35;;;7.40;92.90;;;;;;4913668;29;20100;-79
2021/11/18 07:21:53;;;;;;;2.50;1.20;;;7.40;92.80;;;;;;4915400;29;20056;-79
2021/11/18 07:24:19;;;;;;;3.10;1.45;;;7.40;92.80;;;;;;4906798;29;20041;-79
2021/11/18 07:26:45;;;;;;;4.57;1.52;;;7.50;92.80;;;;;;4907638;29;20037;-79
2021/11/18 07:29:11;;;;;;;2.22;1.20;;;7.50;92.70;;;;;;4889021;29;20077;-79
2021/11/18 07:31:38;;;;;;;6.78;1.63;;;7.50;92.70;;;;;;4889955;29;20109;-78
2021/11/18 07:34:05;;;;;;;3.30;1.60;;;7.40;92.70;;;;;;4911199;29;20049;-78
2021/11/18 07:36:31;;;;;;;2.60;1.52;;;7.50;92.80;;;;;;4883168;29;20041;-79
2021/11/18 07:38:57;;;;;;;3.00;1.40;;;7.40;92.70;;;;;;4904473;29;20093;-79
2021/11/18 07:41:22;;;;;;;3.47;1.58;;;7.50;92.80;;;;;;4904097;29;20052;-80
2021/11/18 07:43:49;;;;;;;4.22;1.48;;;7.50;92.80;;;;;;4880969;29;20041;-80
2021/11/18 07:46:17;;;;;;;4.10;1.42;;;7.40;92.80;;;;;;4898476;29;20044;-81
2021/11/18 07:48:45;;;;;;;4.57;1.55;;;7.40;92.80;;;;;;4880194;29;20045;-81
2021/11/18 07:51:13;;;;;;;4.20;1.50;;;7.40;92.80;;;;;;4895639;29;20492;-80
2021/11/18 07:53:40;;;;;;;4.82;1.70;;;7.50;92.80;;;;;;4899006;29;20036;-81
2021/11/18 07:56:05;;;;;;;3.35;1.40;;;7.40;92.80;;;;;;4898441;29;20504;-80
2021/11/18 07:58:31;;;;;;;4.30;1.77;;;7.40;92.80;;;;;;4880825;29;20035;-81
2021/11/18 08:00:58;;;;;;;3.10;1.50;;;7.50;92.80;;;;;;4899426;29;20078;-80
2021/11/18 08:03:26;;;;;;;5.50;1.52;;;7.50;92.90;;;;;;4880089;29;20037;-80
2021/11/18 08:05:51;;;;;;;2.55;1.35;;;7.40;92.80;;;;;;4877485;29;20399;-80
2021/11/18 08:08:17;;;;;;;4.57;1.45;;;7.40;92.80;;;;;;4898433;29;20095;-81
2021/11/18 08:10:43;;;;;;;3.08;1.25;;;7.40;92.80;;;;;;4895732;29;20404;-79
2021/11/18 08:17:09;;;;;;;5.53;1.77;;;7.40;92.90;;;;;;4896539;29;20068;-82
2021/11/18 08:20:14;;;;;;;5.05;1.80;;;7.50;92.90;;;;;;4874814;29;20144;-81
2021/11/18 08:23:19;;;;;;;4.88;1.75;;;7.50;92.80;;;;;;4829028;29;20097;-81
2021/11/18 08:25:48;;;;;;;4.00;1.83;;;7.50;92.80;;;;;;4804786;29;20558;-84
2021/11/18 08:32:18;;;;;;;3.55;1.73;;;7.50;92.70;;;;;;4738549;30;20090;-80
2021/11/18 08:34:45;;;;;;;3.35;2.05;;;7.50;92.70;;;;;;4748565;30;20055;-82
2021/11/18 08:37:20;;;;;;;4.20;2.00;;;7.60;92.70;;;;;;4768304;30;20098;-83
2021/11/18 08:39:47;;;;;;;3.25;1.67;;;7.50;92.60;;;;;;4749587;30;20064;-81
2021/11/18 08:42:17;;;;;;;5.25;1.95;;;7.60;92.70;;;;;;4734959;30;20102;-81
2021/11/18 08:44:43;;;;;;;5.70;1.85;;;7.60;92.70;;;;;;4712147;30;20108;-82
2021/11/18 08:47:13;;;;;;;5.15;1.83;;;7.70;92.70;;;;;;4727858;30;20037;-78
2021/11/18 08:49:55;;;;;;;2.78;1.52;;;7.70;92.70;;;;;;4729297;30;20042;-78
2021/11/18 08:52:24;;;;;;;5.15;1.90;;;7.70;92.70;;;;;;4707615;30;20068;-78
2021/11/18 08:54:54;;;;;;;5.63;1.90;;;7.70;92.70;;;;;;4720868;30;20098;-78
2021/11/18 08:57:21;;;;;;;3.03;1.75;;;7.70;92.60;;;;;;4721382;30;20057;-79
2021/11/18 08:59:49;;;;;;;5.32;2.05;;;7.80;92.70;;;;;;4749939;30;20530;-82
2021/11/18 09:02:20;;;;;;;7.32;2.15;;;7.80;92.70;;;;;;4774854;29;20118;-80
2021/11/18 09:04:46;;;;;;;5.85;1.85;;;7.70;92.60;;;;;;4857704;29;20049;-81
2021/11/18 09:07:11;;;;;;;4.22;1.50;;;7.80;92.60;;;;;;4846530;29;20201;-80
2021/11/18 09:09:37;;;;;;;4.85;2.13;;;7.80;92.60;;;;;;4861337;29;20069;-82
2021/11/18 09:12:06;;;;;;;5.07;2.05;;;7.90;92.90;;;;;;4906011;29;20041;-80
2021/11/18 09:14:33;;;;;;;5.43;1.98;;;7.90;92.60;;;;;;4902573;29;20058;-78
2021/11/18 09:17:00;;;;;;;4.60;1.60;;;7.90;92.60;;;;;;4883947;29;20044;-80
2021/11/18 09:19:30;;;;;;;6.07;1.75;;;7.90;92.60;;;;;;4885454;29;20056;-81
2021/11/18 09:21:59;;;;;;;3.90;1.40;;;8.00;92.60;;;;;;4897039;29;20057;-79
2021/11/18 09:24:31;;;;;;;3.75;1.70;;;8.00;92.60;;;;;;4898875;29;20032;-78
2021/11/18 09:27:03;;;;;;;4.65;1.63;;;8.10;92.60;;;;;;4896246;29;20033;-80
2021/11/18 09:29:36;;;;;;;8.60;1.77;;;8.10;92.60;;;;;;4898859;29;20172;-82
2021/11/18 09:32:03;;;;;;;3.45;1.48;;;8.20;92.50;;;;;;4862715;29;20041;-82
2021/11/18 09:34:52;;;;;;;5.65;1.63;;;8.20;92.50;;;;;;4877065;29;20037;-80
2021/11/18 09:37:18;;;;;;;5.35;1.73;;;8.30;92.50;;;;;;4883216;29;20046;-81
2021/11/18 09:40:23;;;;;;;4.68;1.60;;;8.30;92.40;;;;;;4878069;29;20558;-81
2021/11/18 09:43:24;;;;;;;4.57;1.55;;;8.40;92.40;;;;;;4838932;29;20061;-82
2021/11/18 09:46:19;;;;;;;5.25;1.63;;;8.40;92.40;;;;;;4815828;29;20058;-80
2021/11/18 09:49:09;;;;;;;2.72;1.52;;;8.50;92.40;;;;;;4797569;29;20070;-82
2021/11/18 09:52:00;;;;;;;4.13;1.45;;;8.50;92.30;;;;;;4798333;29;20058;-81
2021/11/18 09:55:03;;;;;;;4.30;1.73;;;8.60;92.30;;;;;;4802534;29;20126;-80
2021/11/18 09:57:57;;;;;;;5.47;1.83;;;8.50;92.30;;;;;;4805862;29;20108;-81
2021/11/18 10:00:54;;;;;;;5.20;1.92;;;8.70;92.30;;;;;;4819446;29;20055;-80
2021/11/18 10:03:35;;;;;;;6.90;2.42;;;8.70;92.50;;;;;;4820302;29;20058;-79
2021/11/18 10:06:40;;;;;;;8.80;2.72;;;8.80;92.20;;;;;;4803280;29;20051;-81
2021/11/18 10:09:41;;;;;;;7.90;2.47;;;8.90;92.10;;;;;;4782684;29;20042;-80
2021/11/18 10:12:30;;;;;;;6.43;2.22;;;8.90;92.00;;;;;;4816525;29;20087;-79
2021/11/18 10:15:19;;;;;;;4.90;1.98;;;9.00;92.00;;;;;;4803399;29;20053;-78
2021/11/18 10:17:53;;;;;;;6.07;1.98;;;9.10;92.00;;;;;;4828477;29;20060;-80
2021/11/18 10:20:23;;;;;;;6.35;2.20;;;9.10;91.90;;;;;;4861369;29;20049;-82
2021/11/18 10:23:09;;;;;;;5.50;2.13;;;9.20;91.80;;;;;;4874955;29;20041;-79
2021/11/18 10:25:44;;;;;;;5.35;2.25;;;9.20;91.90;;;;;;4873971;29;20480;-79
2021/11/18 10:28:32;;;;;;;5.72;2.38;;;9.20;91.90;;;;;;4879325;29;20053;-80
2021/11/18 10:31:21;;;;;;;7.32;2.40;;;9.30;91.90;;;;;;4879491;29;20056;-79
2021/11/18 10:33:54;;;;;;;4.53;1.83;;;9.30;91.90;;;;;;4896627;29;20083;-80
2021/11/18 10:36:57;;;;;;;4.47;1.98;;;9.50;91.80;;;;;;4878075;29;20041;-80
2021/11/18 10:39:42;;;;;;;5.93;2.42;;;9.50;91.80;;;;;;4878299;29;20037;-81
2021/11/18 10:42:32;;;;;;;5.50;2.47;;;9.60;91.70;;;;;;4878075;29;20515;-79
2021/11/18 10:45:05;;;;;;;8.30;2.55;;;9.70;91.70;;;;;;4878725;29;20089;-80
2021/11/18 10:47:39;;;;;;;6.07;2.20;;;9.70;91.60;;;;;;4862160;29;20032;-79
2021/11/18 10:54:18;;;;;;;7.03;2.25;;;9.80;91.50;;;;;;4798817;29;20579;-78
2021/11/18 10:57:04;;;;;;;5.53;2.13;;;9.90;91.50;;;;;;4784621;29;20126;-85
2021/11/18 11:03:18;;;;;;;7.35;2.50;;;9.90;91.40;;;;;;4755019;30;20056;-81
2021/11/18 11:06:12;;;;;;;5.03;2.20;;;10.00;91.50;;;;;;4685678;30;20153;-83
2021/11/18 11:08:42;;;;;;;6.80;2.42;;;10.00;91.40;;;;;;4679060;30;20072;-81
2021/11/18 11:11:51;;;;;;;6.20;2.15;;;10.10;91.50;;;;;;4695994;30;20183;-81
2021/11/18 11:14:50;;;;;;;5.93;2.15;;;10.00;91.40;;;;;;4696538;30;20105;-81
2021/11/18 11:17:40;;;;;;;7.13;2.58;;;10.10;91.40;;;;;;4695379;30;20046;-81
2021/11/18 11:20:16;;;;;;;7.57;2.35;;;10.10;91.40;;;;;;4682576;30;20052;-81
2021/11/18 11:23:51;;;;;;;4.65;1.95;;;10.20;91.40;;;;;;4681744;30;20057;-83
2021/11/18 11:26:47;;;;;;;6.90;2.22;;;10.20;91.40;;;;;;4677522;30;20088;-81
2021/11/18 11:30:21;;;;;;;4.03;1.95;;;10.30;91.30;;;;;;4671431;30;20071;-82
2021/11/18 11:33:59;;;;;;;4.72;2.10;;;10.30;91.20;;;;;;4671460;30;20089;-80
2021/11/18 11:37:11;;;;;;;5.35;2.20;;;10.40;91.20;;;;;;4684255;30;20140;-80
2021/11/18 11:40:23;;;;;;;4.20;1.92;;;10.50;91.20;;;;;;4658824;30;20054;-82
2021/11/18 11:43:07;;;;;;;5.00;1.85;;;10.50;91.10;;;;;;4639011;30;20058;-80
2021/11/18 11:45:45;;;;;;;4.30;1.92;;;10.50;91.10;;;;;;4663081;30;20070;-78
2021/11/18 11:48:44;;;;;;;5.55;1.98;;;10.60;91.10;;;;;;4632182;30;20078;-79
2021/11/18 11:52:13;;;;;;;5.40;1.60;;;10.60;91.00;;;;;;4649497;30;20053;-86
2021/11/18 11:55:12;;;;;;;5.55;1.85;;;10.80;91.00;;;;;;4663853;30;20050;-80
2021/11/18 11:57:46;;;;;;;5.00;1.80;;;10.80;90.90;;;;;;4648850;30;20078;-80
2021/11/18 12:00:32;;;;;;;5.68;1.80;;;10.90;90.90;;;;;;4613593;30;20044;-79
2021/11/18 12:03:29;;;;;;;4.20;1.50;;;11.00;90.70;;;;;;4670642;30;20062;-81
2021/11/18 12:06:34;;;;;;;3.72;1.52;;;11.10;90.70;;;;;;4667240;30;20140;-79
2021/11/18 12:09:07;;;;;;;7.63;1.70;;;11.20;90.60;;;;;;4700033;30;20044;-78
2021/11/18 12:15:34;;;;;;;7.22;2.25;;;11.30;90.50;;;;;;4833265;29;20053;-83
2021/11/18 12:29:34;;;;;;;4.15;1.40;;;11.50;90.20;;;;;;4786897;29;20434;-80
2021/11/18 12:32:26;;;;;;;3.40;1.25;;;11.40;90.20;;;;;;4779630;29;20035;-78
2021/11/18 12:35:06;;;;;;;4.63;1.40;;;11.40;90.20;;;;;;4783757;30;20509;-79
2021/11/18 12:38:05;;;;;;;4.28;1.70;;;11.50;90.20;;;;;;4779609;30;20039;-78
2021/11/18 12:40:58;;;;;;;4.90;1.70;;;11.60;90.10;;;;;;4749823;30;20085;-78
2021/11/18 12:43:55;;;;;;;5.50;1.70;;;11.60;90.10;;;;;;4750506;30;20068;-80
2021/11/18 12:46:55;;;;;;;3.53;1.42;;;11.70;90.00;;;;;;4738102;30;20069;-78
2021/11/18 12:49:26;;;;;;;4.73;1.50;;;11.80;90.00;;;;;;4767065;30;20052;-79
2021/11/18 12:52:17;;;;;;;4.47;1.83;;;11.80;90.00;;;;;;4767303;30;20297;-78
2021/11/18 12:55:15;;;;;;;3.47;1.35;;;11.70;90.00;;;;;;4768725;29;20289;-79
2021/11/18 12:57:56;;;;;;;3.25;1.35;;;11.80;90.00;;;;;;4856579;29;20109;-78
2021/11/18 13:00:40;;;;;;;4.50;1.55;;;11.80;89.90;;;;;;4857930;29;20053;-78
2021/11/18 13:03:14;;;;;;;5.45;1.50;;;11.90;89.70;;;;;;4878683;29;20052;-80
2021/11/18 13:06:41;;;;;;;3.90;1.60;;;11.90;89.60;;;;;;4894984;29;20068;-79
2021/11/18 13:09:19;;;;;;;3.08;1.33;;;11.80;89.60;;;;;;4890795;29;20063;-77
2021/11/18 13:11:50;;;;;;;3.50;1.15;;;11.90;89.60;;;;;;4844406;29;20065;-80
2021/11/18 13:14:49;;;;;;;4.10;1.40;;;12.00;89.50;;;;;;4858859;29;20056;-81
2021/11/18 13:17:36;;;;;;;3.13;1.30;;;12.00;89.40;;;;;;4857989;29;20258;-78
2021/11/18 13:20:35;;;;;;;3.30;1.42;;;12.00;89.30;;;;;;4855238;29;20535;-79
2021/11/18 13:23:30;;;;;;;6.00;1.80;;;12.00;89.30;;;;;;4857781;29;20072;-77
2021/11/18 13:26:00;;;;;;;4.68;1.65;;;11.90;89.40;;;;;;4858242;29;20476;-78
2021/11/18 13:28:42;;;;;;;3.17;1.50;;;11.80;89.40;;;;;;4876344;29;20048;-78
2021/11/18 13:31:09;;;;;;;3.28;1.58;;;11.80;89.40;;;;;;4877032;29;20984;-77
2021/11/18 13:33:43;;;;;;;3.95;1.35;;;11.80;89.50;;;;;;4876553;29;20056;-78
2021/11/18 13:36:24;;;;;;;5.78;1.70;;;11.90;89.60;;;;;;4876043;29;20462;-78
2021/11/18 13:38:55;;;;;;;4.78;1.40;;;11.80;89.60;;;;;;4876253;29;20140;-78
2021/11/18 13:41:43;;;;;;;4.07;1.30;;;11.80;89.60;;;;;;4876246;29;20053;-79
2021/11/18 13:44:11;;;;;;;3.15;1.20;;;11.80;89.70;;;;;;4892304;29;20077;-78
2021/11/18 13:46:40;;;;;;;5.43;1.83;;;11.80;89.70;;;;;;4878209;29;20492;-76
2021/11/18 13:49:24;;;;;;;5.95;2.00;;;11.70;89.60;;;;;;4880767;29;20033;-77
2021/11/18 13:52:12;;;;;;;5.03;1.70;;;11.60;89.60;;;;;;4879778;29;20033;-78
2021/11/18 13:54:48;;;;;;;4.15;1.48;;;11.60;89.60;;;;;;4879599;29;20052;-80
2021/11/18 13:57:20;;;;;;;3.72;1.50;;;11.60;89.70;;;;;;4879788;29;20036;-78
2021/11/18 13:59:53;;;;;;;4.28;1.45;;;11.50;89.90;;;;;;4895362;29;20044;-77
2021/11/18 14:02:36;;;;;;;3.47;1.40;;;11.50;90.00;;;;;;4879369;29;20900;-79
2021/11/18 14:05:08;;;;;;;3.42;1.48;;;11.40;90.00;;;;;;4880068;29;20036;-78
2021/11/18 14:07:48;;;;;;;4.15;1.42;;;11.40;90.00;;;;;;4896562;29;20041;-77
2021/11/18 14:10:20;;;;;;;5.63;1.40;;;11.40;90.00;;;;;;4898309;29;20037;-76
2021/11/18 14:12:58;;;;;;;3.15;1.40;;;11.40;90.00;;;;;;4896166;29;20060;-77
2021/11/18 14:15:32;;;;;;;2.97;1.27;;;11.40;90.00;;;;;;4894386;29;20037;-76